createdAt,value
2018-09-03T00:00:42.718Z,4.77
2018-09-03T00:03:12.922Z,7.17
2018-09-03T00:05:43.082Z,5.40
2018-09-03T00:08:13.291Z,3.20
2018-09-03T00:10:43.552Z,3.80
2018-09-03T00:13:13.706Z,4.27
2018-09-03T00:15:43.861Z,6.67
2018-09-03T00:18:14.058Z,4.57
2018-09-03T00:20:44.352Z,4.60
2018-09-03T00:23:14.596Z,4.00
2018-09-03T00:25:44.798Z,4.27
2018-09-03T00:28:15.103Z,3.70
2018-09-03T00:30:45.326Z,5.27
2018-09-03T00:33:20.497Z,4.23
2018-09-03T00:37:00.938Z,5.17
2018-09-03T00:39:36.275Z,5.93
2018-09-03T00:42:12.242Z,8.10
2018-09-03T00:44:47.687Z,4.90
2018-09-03T00:47:17.850Z,5.33
2018-09-03T00:49:48.137Z,5.00
2018-09-03T00:52:18.314Z,4.60
2018-09-03T00:54:48.597Z,3.13
2018-09-03T00:57:18.813Z,3.63
2018-09-03T00:59:49.261Z,4.57
2018-09-03T01:02:20.003Z,4.97
2018-09-03T01:04:50.220Z,3.93
2018-09-03T01:07:20.503Z,7.80
2018-09-03T01:09:50.839Z,5.77
2018-09-03T01:12:20.953Z,3.40
2018-09-03T01:14:51.171Z,6.27
2018-09-03T01:17:21.914Z,4.00
2018-09-03T01:19:52.247Z,6.03
2018-09-03T01:22:22.453Z,4.70
2018-09-03T01:24:52.579Z,4.00
2018-09-03T01:27:22.801Z,5.87
2018-09-03T01:29:53.349Z,4.10
2018-09-03T01:32:23.640Z,3.80
2018-09-03T01:34:53.865Z,4.87
2018-09-03T01:37:24.038Z,4.13
2018-09-03T01:39:54.244Z,3.80
2018-09-03T01:42:24.568Z,3.90
2018-09-03T01:44:54.818Z,8.20
2018-09-03T01:47:24.970Z,3.20
2018-09-03T01:49:55.193Z,3.60
2018-09-03T01:52:25.309Z,4.40
2018-09-03T01:54:55.762Z,3.87
2018-09-03T01:57:25.935Z,8.80
2018-09-03T01:59:56.213Z,6.30
2018-09-03T02:02:27.031Z,4.13
2018-09-03T02:04:57.349Z,5.20
2018-09-03T02:07:27.606Z,5.30
2018-09-03T02:09:57.771Z,5.50
2018-09-03T02:12:28.147Z,6.30
2018-09-03T02:14:58.326Z,6.13
2018-09-03T02:17:28.627Z,4.03
2018-09-03T02:19:58.867Z,4.20
2018-09-03T02:22:29.509Z,3.13
2018-09-03T02:24:59.710Z,3.20
2018-09-03T02:27:36.528Z,3.37
2018-09-03T02:30:07.184Z,5.57
2018-09-03T02:32:37.460Z,4.30
2018-09-03T02:35:07.793Z,4.50
2018-09-03T02:37:37.885Z,5.60
2018-09-03T02:40:08.212Z,3.80
2018-09-03T02:42:38.411Z,13.80
2018-09-03T02:45:10.212Z,8.67
2018-09-03T02:47:40.534Z,6.87
2018-09-03T02:50:10.718Z,5.30
2018-09-03T02:52:40.838Z,8.23
2018-09-03T02:55:11.138Z,6.30
2018-09-03T02:57:41.320Z,4.27
2018-09-03T03:00:11.515Z,5.73
2018-09-03T03:02:41.610Z,5.90
2018-09-03T03:05:11.995Z,5.00
2018-09-03T03:07:42.867Z,4.70
2018-09-03T03:10:13.124Z,4.70
2018-09-03T03:12:43.323Z,4.70
2018-09-03T03:15:13.507Z,6.20
2018-09-03T03:17:43.690Z,7.27
2018-09-03T03:20:13.920Z,4.93
2018-09-03T03:22:44.031Z,6.93
2018-09-03T03:25:14.398Z,7.33
2018-09-03T03:27:44.794Z,5.70
2018-09-03T03:30:15.053Z,5.20
2018-09-03T03:32:45.228Z,5.20
2018-09-03T03:35:15.690Z,7.07
2018-09-03T03:37:48.205Z,4.60
2018-09-03T03:40:19.656Z,6.33
2018-09-03T03:42:49.793Z,5.10
2018-09-03T03:45:20.186Z,6.40
2018-09-03T03:47:50.495Z,6.40
2018-09-03T03:50:20.844Z,5.90
2018-09-03T03:52:51.150Z,4.67
2018-09-03T03:55:21.362Z,7.70
2018-09-03T03:57:51.557Z,5.50
2018-09-03T04:00:21.730Z,5.60
2018-09-03T04:02:51.882Z,7.30
2018-09-03T04:05:22.392Z,7.03
2018-09-03T04:07:52.555Z,6.17
2018-09-03T04:10:22.832Z,6.20
2018-09-03T04:12:58.439Z,5.60
2018-09-03T04:15:28.885Z,5.67
2018-09-03T04:17:59.097Z,5.93
2018-09-03T04:20:29.405Z,4.63
2018-09-03T04:22:59.655Z,5.17
2018-09-03T04:25:29.940Z,6.63
2018-09-03T04:28:00.197Z,5.77
2018-09-03T04:30:30.601Z,8.20
2018-09-03T04:33:01.073Z,6.77
2018-09-03T04:35:31.432Z,7.17
2018-09-03T04:38:01.678Z,5.50
2018-09-03T04:40:32.528Z,7.13
2018-09-03T04:43:02.734Z,9.10
2018-09-03T04:45:33.290Z,6.90
2018-09-03T04:48:03.614Z,5.40
2018-09-03T04:50:33.989Z,5.40
2018-09-03T04:53:04.233Z,9.37
2018-09-03T04:55:34.458Z,7.30
2018-09-03T04:58:04.885Z,10.10
2018-09-03T05:00:35.315Z,6.47
2018-09-03T05:03:05.906Z,9.43
2018-09-03T05:05:36.300Z,7.70
2018-09-03T05:08:06.537Z,9.80
2018-09-03T05:10:36.939Z,8.43
2018-09-03T05:13:07.167Z,7.13
2018-09-03T05:15:37.322Z,9.73
2018-09-03T05:18:07.703Z,10.00
2018-09-03T05:20:38.057Z,9.20
2018-09-03T05:23:08.263Z,7.93
2018-09-03T05:25:38.875Z,7.23
2018-09-03T05:28:09.116Z,9.70
2018-09-03T05:30:39.398Z,7.90
2018-09-03T05:33:09.593Z,9.30
2018-09-03T05:35:39.832Z,11.03
2018-09-03T05:38:09.962Z,8.00
2018-09-03T05:40:40.236Z,8.70
2018-09-03T05:43:10.806Z,8.50
2018-09-03T05:45:41.172Z,7.30
2018-09-03T05:48:11.322Z,8.03
2018-09-03T05:50:41.591Z,9.50
2018-09-03T05:53:11.804Z,10.30
2018-09-03T05:55:42.064Z,11.70
2018-09-03T05:58:12.342Z,8.20
2018-09-03T06:00:42.551Z,9.70
2018-09-03T06:03:13.031Z,9.63
2018-09-03T06:05:43.283Z,7.83
2018-09-03T06:08:13.506Z,8.17
2018-09-03T06:10:44.265Z,10.87
2018-09-03T06:13:14.666Z,9.60
2018-09-03T06:15:45.643Z,9.33
2018-09-03T06:18:15.910Z,8.90
2018-09-03T06:20:46.199Z,9.97
2018-09-03T06:23:16.431Z,10.30
2018-09-03T06:25:46.951Z,9.97
2018-09-03T06:28:17.202Z,8.00
2018-09-03T06:30:47.359Z,8.33
2018-09-03T06:33:17.643Z,10.53
2018-09-03T06:35:47.876Z,9.90
2018-09-03T06:38:18.818Z,8.17
2018-09-03T06:40:49.085Z,11.80
2018-09-03T06:43:19.226Z,10.07
2018-09-03T06:45:49.571Z,9.10
2018-09-03T06:48:19.737Z,13.20
2018-09-03T06:50:50.112Z,11.87
2018-09-03T06:53:20.405Z,8.40
2018-09-03T06:55:50.616Z,9.17
2018-09-03T06:58:20.860Z,8.60
2018-09-03T07:00:54.148Z,12.23
2018-09-03T07:03:25.660Z,9.83
2018-09-03T07:05:56.707Z,12.27
2018-09-03T07:08:26.932Z,8.90
2018-09-03T07:10:57.373Z,8.60
2018-09-03T07:13:28.119Z,8.70
2018-09-03T07:15:58.320Z,9.63
2018-09-03T07:18:28.493Z,11.60
2018-09-03T07:20:58.670Z,10.13
2018-09-03T07:23:28.798Z,12.37
2018-09-03T07:25:59.084Z,13.90
2018-09-03T07:28:29.347Z,8.80
2018-09-03T07:30:59.937Z,11.13
2018-09-03T07:33:30.185Z,10.50
2018-09-03T07:36:00.333Z,10.73
2018-09-03T07:38:30.878Z,9.80
2018-09-03T07:41:01.179Z,9.60
2018-09-03T07:43:31.266Z,9.17
2018-09-03T07:46:01.398Z,12.57
2018-09-03T07:48:31.747Z,9.57
2018-09-03T07:51:02.020Z,9.33
2018-09-03T07:53:32.173Z,12.60
2018-09-03T07:56:02.504Z,12.63
2018-09-03T07:58:32.658Z,11.70
2018-09-03T08:01:03.106Z,16.80
2018-09-03T08:03:33.338Z,10.03
2018-09-03T08:06:04.001Z,10.53
2018-09-03T08:08:35.788Z,10.17
2018-09-03T08:11:06.252Z,12.27
2018-09-03T08:13:39.626Z,10.27
2018-09-03T08:16:10.573Z,10.40
2018-09-03T08:18:41.545Z,10.13
2018-09-03T08:21:11.754Z,9.43
2018-09-03T08:23:41.937Z,9.13
2018-09-03T08:26:12.124Z,12.90
2018-09-03T08:28:42.508Z,12.90
2018-09-03T08:31:12.763Z,12.90
2018-09-03T08:33:42.870Z,11.57
2018-09-03T08:36:13.076Z,9.93
2018-09-03T08:38:43.302Z,12.13
2018-09-03T08:41:13.450Z,12.07
2018-09-03T08:43:44.433Z,10.90
2018-09-03T08:46:14.816Z,11.90
2018-09-03T08:48:45.071Z,9.00
2018-09-03T08:51:15.281Z,9.90
2018-09-03T08:53:45.626Z,8.70
2018-09-03T08:56:15.981Z,10.33
2018-09-03T08:58:46.351Z,11.37
2018-09-03T09:01:16.716Z,12.57
2018-09-03T09:03:46.894Z,9.70
2018-09-03T09:06:17.501Z,12.40
2018-09-03T09:08:47.808Z,12.27
2018-09-03T09:11:18.087Z,10.87
2018-09-03T09:13:48.623Z,12.23
2018-09-03T09:16:19.684Z,11.33
2018-09-03T09:18:50.019Z,18.10
2018-09-03T09:21:20.923Z,12.73
2018-09-03T09:23:51.680Z,11.73
2018-09-03T09:26:22.327Z,11.97
2018-09-03T09:28:52.667Z,13.33
2018-09-03T09:31:23.735Z,11.87
2018-09-03T09:33:53.952Z,8.87
2018-09-03T09:36:24.199Z,13.97
2018-09-03T09:38:59.500Z,9.63
2018-09-03T09:41:34.871Z,10.37
2018-09-03T09:44:05.733Z,11.03
2018-09-03T09:46:35.957Z,10.90
2018-09-03T09:49:06.209Z,9.87
2018-09-03T09:51:36.608Z,10.03
2018-09-03T09:54:06.847Z,8.23
2018-09-03T09:56:37.112Z,8.67
2018-09-03T09:59:07.806Z,10.70
2018-09-03T10:01:39.377Z,11.37
2018-09-03T10:04:09.703Z,11.77
2018-09-03T10:06:39.985Z,8.13
2018-09-03T10:09:10.371Z,9.20
2018-09-03T10:11:41.552Z,8.20
2018-09-03T10:14:11.726Z,11.60
2018-09-03T10:16:41.945Z,9.60
2018-09-03T10:19:12.278Z,7.37
2018-09-03T10:21:42.519Z,8.37
2018-09-03T10:24:12.700Z,9.70
2018-09-03T10:26:43.420Z,8.17
2018-09-03T10:29:14.572Z,8.43
2018-09-03T10:31:44.865Z,14.57
2018-09-03T10:34:15.188Z,9.37
2018-09-03T10:36:45.396Z,10.50
2018-09-03T10:39:15.590Z,10.13
2018-09-03T10:41:46.169Z,8.77
2018-09-03T10:44:16.507Z,8.03
2018-09-03T10:46:48.293Z,9.40
2018-09-03T10:49:19.078Z,10.23
2018-09-03T10:51:49.277Z,10.67
2018-09-03T10:54:19.899Z,10.20
2018-09-03T10:56:50.179Z,8.63
2018-09-03T10:59:20.470Z,9.80
2018-09-03T11:01:50.663Z,9.20
2018-09-03T11:04:20.894Z,9.23
2018-09-03T11:06:51.149Z,10.40
2018-09-03T11:09:21.306Z,15.73
2018-09-03T11:11:51.574Z,11.47
2018-09-03T11:14:22.074Z,11.20
2018-09-03T11:16:52.399Z,9.47
2018-09-03T11:19:25.106Z,10.40
2018-09-03T11:21:55.517Z,9.20
2018-09-03T11:24:26.951Z,12.33
2018-09-03T11:26:57.318Z,11.27
2018-09-03T11:29:28.403Z,12.27
2018-09-03T11:31:59.070Z,10.57
2018-09-03T11:34:29.922Z,13.87
2018-09-03T11:37:00.569Z,9.13
2018-09-03T11:39:31.195Z,13.00
2018-09-03T11:42:01.758Z,9.87
2018-09-03T11:44:32.259Z,10.27
2018-09-03T11:47:02.745Z,11.70
2018-09-03T11:49:33.478Z,13.00
2018-09-03T11:52:03.905Z,10.30
2018-09-03T11:54:34.086Z,11.10
2018-09-03T11:57:04.230Z,10.20
2018-09-03T11:59:35.653Z,9.97
2018-09-03T12:02:07.507Z,10.37
2018-09-03T12:04:37.875Z,13.33
2018-09-03T12:07:08.525Z,10.60
2018-09-03T12:09:39.250Z,17.00
2018-09-03T12:12:09.457Z,11.27
2018-09-03T12:14:42.186Z,11.93
2018-09-03T12:17:12.473Z,13.73
2018-09-03T12:19:43.145Z,12.87
2018-09-03T12:22:13.516Z,11.10
2018-09-03T12:24:43.587Z,14.20
2018-09-03T12:27:13.761Z,13.70
2018-09-03T12:29:44.074Z,12.30
2018-09-03T12:32:14.374Z,11.17
2018-09-03T12:34:44.523Z,11.40
2018-09-03T12:37:14.650Z,13.70
2018-09-03T12:39:45.018Z,14.07
2018-09-03T12:42:15.199Z,12.63
2018-09-03T12:44:45.358Z,13.63
2018-09-03T12:47:15.563Z,16.17
2018-09-03T12:49:45.984Z,13.47
2018-09-03T12:52:16.370Z,14.00
2018-09-03T12:54:46.549Z,12.13
2018-09-03T12:57:16.683Z,16.37
2018-09-03T12:59:46.843Z,14.90
2018-09-03T13:02:17.339Z,16.33
2018-09-03T13:04:47.470Z,18.70
2018-09-03T13:07:17.698Z,24.20
2018-09-03T13:09:47.889Z,19.07
2018-09-03T13:12:18.233Z,21.03
2018-09-03T13:14:48.365Z,21.53
2018-09-03T13:17:20.109Z,22.70
2018-09-03T13:19:50.785Z,18.60
2018-09-03T13:22:21.021Z,16.47
2018-09-03T13:24:51.223Z,18.70
2018-09-03T13:27:24.352Z,17.70
2018-09-03T13:29:54.542Z,16.77
2018-09-03T13:32:24.813Z,18.60
2018-09-03T13:34:55.001Z,26.77
2018-09-03T13:37:25.317Z,20.00
2018-09-03T13:39:55.515Z,20.47
2018-09-03T13:42:25.797Z,22.00
2018-09-03T13:44:55.938Z,21.10
2018-09-03T13:47:27.201Z,21.33
2018-09-03T13:49:57.747Z,20.50
2018-09-03T13:52:28.573Z,18.80
2018-09-03T13:54:59.113Z,19.33
2018-09-03T13:57:29.342Z,21.73
2018-09-03T13:59:59.467Z,21.20
2018-09-03T14:02:29.693Z,25.43
2018-09-03T14:04:59.893Z,22.27
2018-09-03T14:07:30.029Z,22.50
2018-09-03T14:10:00.302Z,22.57
2018-09-03T14:12:30.492Z,24.80
2018-09-03T14:15:01.123Z,22.43
2018-09-03T14:17:31.900Z,19.13
2018-09-03T14:20:02.141Z,22.63
2018-09-03T14:22:32.333Z,24.67
2018-09-03T14:25:02.645Z,21.57
2018-09-03T14:27:33.007Z,18.33
2018-09-03T14:30:03.213Z,21.13
2018-09-03T14:32:33.901Z,20.17
2018-09-03T14:35:04.114Z,22.70
2018-09-03T14:37:34.455Z,24.67
2018-09-03T14:40:05.109Z,21.20
2018-09-03T14:42:35.842Z,23.53
2018-09-03T14:45:06.734Z,26.90
2018-09-03T14:47:37.048Z,24.63
2018-09-03T14:50:07.769Z,21.00
2018-09-03T14:52:38.097Z,28.43
2018-09-03T14:55:08.687Z,28.70
2018-09-03T14:57:38.893Z,23.00
2018-09-03T15:00:10.921Z,29.43
2018-09-03T15:02:41.348Z,26.50
2018-09-03T15:05:11.527Z,28.50
2018-09-03T15:07:42.002Z,25.57
2018-09-03T15:10:12.539Z,29.90
2018-09-03T15:12:42.920Z,26.90
2018-09-03T15:15:13.097Z,28.93
2018-09-03T15:17:43.676Z,27.03
2018-09-03T15:20:14.125Z,34.40
2018-09-03T15:22:44.587Z,28.17
2018-09-03T15:25:14.838Z,27.20
2018-09-03T15:27:45.246Z,27.60
2018-09-03T15:30:16.303Z,25.47
2018-09-03T15:32:46.689Z,26.20
2018-09-03T15:35:17.770Z,25.37
2018-09-03T15:37:48.126Z,28.60
2018-09-03T15:40:19.812Z,22.13
2018-09-03T15:42:54.551Z,25.70
2018-09-03T15:45:33.785Z,22.13
2018-09-03T15:48:05.618Z,27.83
2018-09-03T15:50:43.595Z,26.73
2018-09-03T15:53:16.300Z,23.10
2018-09-03T15:55:55.139Z,29.67
2018-09-03T15:58:27.991Z,28.53
2018-09-03T16:01:00.030Z,26.67
2018-09-03T16:03:31.191Z,30.40
2018-09-03T16:06:02.872Z,27.73
2018-09-03T16:08:34.416Z,29.00
2018-09-03T16:11:07.438Z,25.30
2018-09-03T16:13:45.673Z,29.03
2018-09-03T16:16:16.766Z,28.93
2018-09-03T16:18:48.598Z,28.57
2018-09-03T16:21:20.017Z,36.20
2018-09-03T16:23:50.465Z,26.50
2018-09-03T16:26:20.648Z,33.10
2018-09-03T16:28:50.962Z,26.70
2018-09-03T16:31:25.397Z,27.97
2018-09-03T16:33:56.022Z,26.40
2018-09-03T16:36:26.207Z,31.90
2018-09-03T16:38:56.644Z,31.40
2018-09-03T16:41:31.170Z,35.27
2018-09-03T16:44:09.308Z,28.90
2018-09-03T16:46:46.196Z,32.10
2018-09-03T16:49:16.722Z,29.67
2018-09-03T16:51:47.247Z,31.30
2018-09-03T16:54:17.525Z,32.83
2018-09-03T16:56:47.839Z,27.40
2018-09-03T16:59:18.370Z,30.47
2018-09-03T17:01:48.790Z,29.40
2018-09-03T17:04:19.142Z,31.70
2018-09-03T17:06:49.693Z,33.33
2018-09-03T17:09:19.872Z,27.40
2018-09-03T17:11:50.061Z,27.37
2018-09-03T17:14:21.126Z,27.40
2018-09-03T17:16:51.321Z,29.97
2018-09-03T17:19:21.468Z,29.97
2018-09-03T17:21:51.622Z,31.23
2018-09-03T17:24:21.762Z,33.23
2018-09-03T17:26:52.140Z,33.93
2018-09-03T17:29:22.519Z,27.70
2018-09-03T17:31:52.936Z,30.23
2018-09-03T17:34:23.386Z,29.17
2018-09-03T17:36:55.495Z,29.80
2018-09-03T17:39:25.768Z,34.60
2018-09-03T17:41:55.864Z,29.13
2018-09-03T17:44:25.987Z,29.30
2018-09-03T17:46:56.195Z,27.20
2018-09-03T17:49:27.106Z,25.90
2018-09-03T17:51:57.288Z,28.60
2018-09-03T17:54:27.438Z,30.53
2018-09-03T17:56:57.749Z,26.60
2018-09-03T17:59:28.049Z,25.50
2018-09-03T18:01:58.188Z,22.87
2018-09-03T18:04:32.017Z,26.87
2018-09-03T18:07:03.374Z,25.33
2018-09-03T18:09:34.713Z,25.53
2018-09-03T18:12:05.231Z,25.73
2018-09-03T18:14:35.432Z,30.77
2018-09-03T18:17:05.850Z,24.70
2018-09-03T18:19:36.007Z,28.30
2018-09-03T18:22:06.184Z,36.10
2018-09-03T18:24:36.289Z,30.47
2018-09-03T18:27:06.497Z,22.37
2018-09-03T18:29:36.806Z,26.03
2018-09-03T18:32:07.342Z,27.17
2018-09-03T18:34:37.498Z,31.37
2018-09-03T18:37:07.781Z,27.10
2018-09-03T18:39:38.188Z,31.10
2018-09-03T18:42:08.337Z,26.93
2018-09-03T18:44:38.575Z,28.60
2018-09-03T18:47:08.724Z,29.50
2018-09-03T18:49:39.005Z,28.63
2018-09-03T18:52:09.683Z,24.80
2018-09-03T18:54:39.845Z,28.10
2018-09-03T18:57:10.029Z,23.97
2018-09-03T18:59:40.267Z,28.87
2018-09-03T19:02:10.408Z,29.30
2018-09-03T19:04:40.733Z,28.43
2018-09-03T19:07:10.881Z,26.10
2018-09-03T19:09:41.041Z,25.53
2018-09-03T19:12:11.246Z,30.80
2018-09-03T19:14:41.423Z,28.13
2018-09-03T19:17:11.610Z,27.50
2018-09-03T19:19:41.987Z,25.80
2018-09-03T19:22:12.198Z,27.70
2018-09-03T19:24:42.519Z,32.37
2018-09-03T19:27:12.793Z,30.40
2018-09-03T19:29:43.137Z,26.50
2018-09-03T19:32:13.306Z,26.30
2018-09-03T19:34:43.538Z,23.57
2018-09-03T19:37:15.120Z,28.50
2018-09-03T19:39:45.306Z,34.90
2018-09-03T19:42:15.416Z,31.97
2018-09-03T19:44:45.535Z,29.67
2018-09-03T19:47:15.761Z,24.33
2018-09-03T19:49:45.897Z,26.77
2018-09-03T19:52:16.075Z,27.27
2018-09-03T19:54:46.298Z,29.67
2018-09-03T19:57:16.552Z,29.00
2018-09-03T19:59:46.847Z,30.10
2018-09-03T20:02:17.022Z,29.80
2018-09-03T20:04:47.542Z,28.03
2018-09-03T20:07:17.720Z,28.80
2018-09-03T20:09:49.347Z,25.97
2018-09-03T20:12:19.545Z,27.73
2018-09-03T20:14:52.412Z,28.70
2018-09-03T20:17:24.112Z,24.43
2018-09-03T20:19:54.803Z,35.10
2018-09-03T20:22:25.036Z,30.83
2018-09-03T20:24:55.626Z,30.43
2018-09-03T20:27:25.933Z,34.93
2018-09-03T20:29:56.107Z,31.97
2018-09-03T20:32:26.223Z,30.67
2018-09-03T20:34:56.404Z,33.30
2018-09-03T20:37:26.497Z,34.40
2018-09-03T20:39:56.727Z,37.40
2018-09-03T20:42:26.905Z,32.00
2018-09-03T20:44:57.047Z,42.80
2018-09-03T20:47:27.906Z,37.63
2018-09-03T20:49:58.169Z,42.50
2018-09-03T20:52:28.298Z,44.43
2018-09-03T20:54:58.425Z,37.40
2018-09-03T20:57:28.578Z,43.77
2018-09-03T20:59:58.732Z,39.53
2018-09-03T21:02:28.843Z,42.40
2018-09-03T21:04:59.022Z,41.00
2018-09-03T21:07:29.144Z,40.17
2018-09-03T21:09:59.272Z,43.40
2018-09-03T21:12:29.362Z,49.47
2018-09-03T21:14:59.550Z,40.67
2018-09-03T21:17:29.924Z,44.93
2018-09-03T21:20:00.803Z,48.97
2018-09-03T21:22:30.984Z,39.67
2018-09-03T21:25:02.052Z,46.23
2018-09-03T21:27:32.737Z,44.17
2018-09-03T21:30:04.055Z,50.47
2018-09-03T21:32:34.793Z,48.37
2018-09-03T21:35:06.826Z,41.43
2018-09-03T21:37:37.297Z,51.80
2018-09-03T21:40:08.891Z,49.37
2018-09-03T21:42:39.141Z,47.90
2018-09-03T21:45:09.374Z,48.67
2018-09-03T21:47:39.500Z,57.97
2018-09-03T21:50:09.771Z,55.20
2018-09-03T21:52:39.917Z,47.47
2018-09-03T21:55:10.213Z,49.83
2018-09-03T21:57:40.586Z,47.97
2018-09-03T22:00:11.808Z,54.30
2018-09-03T22:02:42.332Z,48.03
2018-09-03T22:05:13.017Z,55.83
2018-09-03T22:07:44.073Z,54.20
2018-09-03T22:10:15.261Z,52.30
2018-09-03T22:12:46.057Z,44.23
2018-09-03T22:15:16.414Z,53.30
2018-09-03T22:17:46.726Z,45.33
2018-09-03T22:20:17.720Z,45.77
2018-09-03T22:22:48.065Z,49.70
2018-09-03T22:25:18.323Z,54.60
2018-09-03T22:27:49.153Z,49.77
2018-09-03T22:30:19.370Z,50.50
2018-09-03T22:32:49.504Z,50.20
2018-09-03T22:35:20.036Z,52.43
2018-09-03T22:37:50.270Z,54.20
2018-09-03T22:40:20.744Z,50.07
2018-09-03T22:42:51.131Z,52.67
2018-09-03T22:45:21.653Z,54.90
2018-09-03T22:47:55.176Z,65.07
2018-09-03T22:50:25.546Z,55.43
2018-09-03T22:52:56.085Z,64.17
2018-09-03T22:55:26.411Z,54.37
2018-09-03T22:57:56.729Z,65.87
2018-09-03T23:00:26.961Z,56.17
2018-09-03T23:02:57.138Z,63.07
2018-09-03T23:05:27.454Z,56.27
2018-09-03T23:07:57.578Z,63.27
2018-09-03T23:10:27.777Z,55.70
2018-09-03T23:12:59.449Z,62.87
2018-09-03T23:15:29.834Z,61.60
2018-09-03T23:18:00.381Z,58.73
2018-09-03T23:20:31.568Z,63.03
2018-09-03T23:23:02.334Z,55.00
2018-09-03T23:25:33.207Z,55.47
2018-09-03T23:28:05.047Z,54.27
2018-09-03T23:30:35.612Z,65.50
2018-09-03T23:33:06.192Z,63.77
2018-09-03T23:35:36.558Z,71.27
2018-09-03T23:38:07.061Z,59.47
2018-09-03T23:40:37.278Z,73.27
2018-09-03T23:43:07.476Z,64.07
2018-09-03T23:45:37.617Z,55.97
2018-09-03T23:48:07.830Z,57.13
2018-09-03T23:50:38.045Z,63.13
2018-09-03T23:53:08.302Z,58.33
2018-09-03T23:55:38.542Z,66.90
2018-09-03T23:58:08.946Z,62.87
